createdAt,value
2018-07-08T00:01:22.906Z,63.80
2018-07-08T00:03:51.325Z,64.00
2018-07-08T00:08:48.056Z,62.80
2018-07-08T00:11:16.485Z,63.40
2018-07-08T00:13:44.950Z,63.60
2018-07-08T00:16:13.418Z,63.60
2018-07-08T00:18:41.893Z,63.50
2018-07-08T00:21:10.453Z,63.50
2018-07-08T00:23:38.972Z,64.30
2018-07-08T00:28:35.858Z,64.50
2018-07-08T00:31:05.010Z,65.50
2018-07-08T00:33:33.457Z,65.00
2018-07-08T00:36:01.834Z,64.10
2018-07-08T00:38:30.239Z,63.30
2018-07-08T00:40:58.655Z,63.70
2018-07-08T00:43:27.036Z,63.20
2018-07-08T00:45:55.453Z,63.10
2018-07-08T00:48:23.849Z,63.00
2018-07-08T00:50:52.272Z,63.10
2018-07-08T00:53:20.690Z,63.10
2018-07-08T00:55:49.048Z,63.00
2018-07-08T00:58:17.654Z,62.90
2018-07-08T01:00:46.108Z,63.70
2018-07-08T01:03:14.503Z,62.90
2018-07-08T01:05:42.883Z,62.80
2018-07-08T01:08:11.354Z,62.80
2018-07-08T01:10:39.711Z,62.70
2018-07-08T01:13:08.223Z,63.10
2018-07-08T01:15:36.647Z,63.90
2018-07-08T01:18:05.303Z,64.30
2018-07-08T01:20:33.737Z,64.60
2018-07-08T01:23:02.130Z,64.00
2018-07-08T01:25:47.388Z,63.80
2018-07-08T01:28:16.082Z,63.60
2018-07-08T01:30:44.459Z,63.80
2018-07-08T01:33:13.098Z,63.80
2018-07-08T01:35:41.821Z,63.20
2018-07-08T01:38:10.235Z,64.60
2018-07-08T01:40:38.709Z,64.10
2018-07-08T01:43:07.142Z,64.70
2018-07-08T01:45:35.510Z,64.00
2018-07-08T01:48:04.073Z,64.20
2018-07-08T01:50:32.430Z,63.40
2018-07-08T01:53:00.904Z,62.40
2018-07-08T01:55:29.385Z,62.90
2018-07-08T01:57:57.750Z,62.30
2018-07-08T02:00:26.327Z,63.00
2018-07-08T02:02:54.824Z,62.60
2018-07-08T02:05:23.359Z,62.20
2018-07-08T02:07:51.894Z,62.20
2018-07-08T02:10:20.313Z,62.20
2018-07-08T02:12:48.780Z,62.20
2018-07-08T02:15:17.184Z,62.60
2018-07-08T02:17:45.618Z,62.30
2018-07-08T02:20:14.047Z,62.40
2018-07-08T02:22:42.484Z,62.90
2018-07-08T02:25:10.810Z,63.00
2018-07-08T02:27:39.257Z,62.80
2018-07-08T02:30:07.663Z,62.20
2018-07-08T02:32:36.529Z,62.30
2018-07-08T02:35:04.993Z,61.50
2018-07-08T02:37:33.377Z,62.10
2018-07-08T02:40:01.823Z,61.80
2018-07-08T02:42:30.204Z,62.10
2018-07-08T02:44:58.674Z,62.00
2018-07-08T02:47:27.131Z,62.00
2018-07-08T02:49:55.587Z,62.00
2018-07-08T02:52:24.057Z,62.10
2018-07-08T02:54:52.438Z,62.10
2018-07-08T02:57:20.760Z,61.80
2018-07-08T02:59:49.096Z,61.10
2018-07-08T03:02:17.491Z,60.50
2018-07-08T03:04:45.883Z,60.90
2018-07-08T03:07:14.218Z,60.30
2018-07-08T03:12:10.783Z,59.70
2018-07-08T03:14:39.172Z,59.30
2018-07-08T03:17:14.316Z,59.60
2018-07-08T03:19:42.625Z,58.90
2018-07-08T03:22:10.946Z,59.00
2018-07-08T03:24:39.303Z,58.60
2018-07-08T03:32:04.195Z,58.70
2018-07-08T03:34:32.520Z,59.10
2018-07-08T03:37:00.890Z,58.90
2018-07-08T03:39:29.262Z,60.20
2018-07-08T03:49:30.184Z,59.60
2018-07-08T03:51:58.588Z,59.20
2018-07-08T03:54:30.168Z,59.60
2018-07-08T03:56:58.535Z,60.00
2018-07-08T03:59:26.869Z,59.80
2018-07-08T04:01:55.317Z,59.80
2018-07-08T04:04:23.701Z,59.90
2018-07-08T04:06:52.098Z,60.10
2018-07-08T04:09:20.486Z,59.90
2018-07-08T04:11:49.256Z,59.50
2018-07-08T04:14:17.670Z,60.60
2018-07-08T04:16:46.696Z,60.70
2018-07-08T04:19:15.240Z,60.30
2018-07-08T04:21:43.560Z,60.70
2018-07-08T04:24:12.162Z,60.20
2018-07-08T04:26:40.490Z,59.60
2018-07-08T04:29:08.914Z,56.40
2018-07-08T04:31:37.282Z,57.00
2018-07-08T04:34:05.929Z,55.50
2018-07-08T04:36:34.372Z,54.50
2018-07-08T04:39:03.740Z,53.50
2018-07-08T04:41:32.148Z,53.50
2018-07-08T04:44:07.134Z,53.50
2018-07-08T04:46:35.513Z,53.50
2018-07-08T04:49:03.899Z,53.50
2018-07-08T04:51:32.269Z,53.40
2018-07-08T04:54:00.638Z,53.90
2018-07-08T04:56:29.011Z,54.20
2018-07-08T04:58:57.502Z,53.50
2018-07-08T05:06:22.499Z,54.10
2018-07-08T05:08:50.877Z,54.10
2018-07-08T05:11:19.297Z,54.60
2018-07-08T05:13:47.710Z,54.60
2018-07-08T05:16:16.113Z,54.20
2018-07-08T05:18:44.440Z,54.50
2018-07-08T05:21:12.888Z,54.30
2018-07-08T05:23:41.296Z,55.10
2018-07-08T05:26:09.646Z,53.90
2018-07-08T05:28:38.048Z,54.10
2018-07-08T05:31:06.647Z,54.40
2018-07-08T05:33:35.014Z,53.30
2018-07-08T05:36:09.979Z,53.50
2018-07-08T05:38:38.344Z,53.50
2018-07-08T05:41:06.794Z,53.10
2018-07-08T05:43:35.154Z,53.50
2018-07-08T05:48:32.015Z,53.50
2018-07-08T05:51:00.464Z,53.40
2018-07-08T05:53:28.920Z,53.50
2018-07-08T05:55:57.279Z,53.50
2018-07-08T05:58:25.699Z,52.80
2018-07-08T06:00:54.106Z,53.20
2018-07-08T06:03:22.501Z,53.30
2018-07-08T06:05:50.863Z,52.90
2018-07-08T06:08:19.258Z,53.60
2018-07-08T06:10:47.675Z,53.70
2018-07-08T06:13:16.053Z,52.40
2018-07-08T06:15:44.397Z,53.10
2018-07-08T06:18:12.785Z,53.50
2018-07-08T06:20:41.176Z,53.70
2018-07-08T06:23:09.570Z,53.80
2018-07-08T06:25:37.997Z,53.80
2018-07-08T06:28:06.977Z,53.80
2018-07-08T06:30:36.292Z,53.50
2018-07-08T06:33:04.803Z,52.50
2018-07-08T06:35:33.196Z,52.20
2018-07-08T06:38:01.649Z,52.20
2018-07-08T06:40:30.102Z,51.40
2018-07-08T06:42:58.645Z,51.50
2018-07-08T06:45:27.022Z,52.00
2018-07-08T06:47:55.454Z,50.80
2018-07-08T06:50:23.932Z,51.20
2018-07-08T06:52:52.352Z,50.90
2018-07-08T06:55:20.726Z,50.00
2018-07-08T07:00:17.509Z,49.20
2018-07-08T07:05:14.141Z,49.60
2018-07-08T07:07:44.268Z,48.90
2018-07-08T07:10:12.708Z,49.30
2018-07-08T07:12:41.262Z,47.90
2018-07-08T07:15:09.663Z,48.10
2018-07-08T07:17:38.049Z,48.60
2018-07-08T07:20:06.486Z,47.80
2018-07-08T07:22:34.932Z,48.40
2018-07-08T07:25:03.404Z,47.30
2018-07-08T07:27:31.795Z,47.20
2018-07-08T07:30:00.211Z,47.60
2018-07-08T07:32:28.652Z,48.00
2018-07-08T07:34:57.146Z,48.20
2018-07-08T07:37:25.608Z,48.10
2018-07-08T07:39:54.038Z,47.20
2018-07-08T07:42:22.420Z,46.80
2018-07-08T07:44:50.898Z,46.90
2018-07-08T07:47:19.455Z,46.80
2018-07-08T07:52:16.131Z,47.10
2018-07-08T07:54:44.592Z,46.00
2018-07-08T07:59:41.189Z,46.10
2018-07-08T08:02:09.837Z,45.10
2018-07-08T08:04:38.270Z,44.50
2018-07-08T08:07:06.805Z,42.60
2018-07-08T08:09:35.281Z,43.40
2018-07-08T08:12:03.793Z,45.30
2018-07-08T08:14:33.166Z,43.70
2018-07-08T08:17:01.697Z,42.80
2018-07-08T08:19:30.126Z,41.30
2018-07-08T08:21:58.597Z,39.60
2018-07-08T08:24:27.050Z,39.50
2018-07-08T08:26:55.392Z,39.10
2018-07-08T08:29:23.797Z,39.00
2018-07-08T08:31:52.304Z,39.70
2018-07-08T08:34:57.115Z,41.00
2018-07-08T08:39:58.384Z,41.60
2018-07-08T08:44:56.970Z,39.70
2018-07-08T08:47:25.981Z,40.40
2018-07-08T08:49:54.529Z,37.80
2018-07-08T08:52:23.046Z,37.80
2018-07-08T08:54:51.592Z,37.80
2018-07-08T08:57:20.071Z,37.90
2018-07-08T08:59:48.444Z,37.30
2018-07-08T09:02:16.938Z,37.80
2018-07-08T09:04:45.476Z,37.80
2018-07-08T09:07:14.976Z,37.90
2018-07-08T09:09:43.418Z,37.90
2018-07-08T09:12:12.340Z,37.90
2018-07-08T09:14:41.079Z,38.00
2018-07-08T09:17:09.701Z,38.10
2018-07-08T09:19:38.204Z,38.10
2018-07-08T09:22:07.652Z,37.50
2018-07-08T09:24:36.182Z,37.50
2018-07-08T09:27:04.732Z,37.10
2018-07-08T09:29:33.403Z,37.00
2018-07-08T09:32:01.804Z,36.90
2018-07-08T09:34:30.244Z,38.20
2018-07-08T09:36:58.832Z,37.80
2018-07-08T09:39:27.205Z,37.10
2018-07-08T09:41:55.646Z,36.90
2018-07-08T09:44:24.174Z,36.80
2018-07-08T09:46:52.650Z,37.10
2018-07-08T09:49:21.014Z,37.20
2018-07-08T09:51:49.513Z,37.10
2018-07-08T09:54:17.925Z,38.10
2018-07-08T09:56:46.393Z,38.20
2018-07-08T09:59:14.812Z,37.60
2018-07-08T10:01:45.478Z,38.30
2018-07-08T10:06:46.096Z,36.80
2018-07-08T10:09:15.907Z,37.10
2018-07-08T10:11:44.445Z,37.80
2018-07-08T10:14:14.148Z,38.10
2018-07-08T10:16:42.695Z,38.30
2018-07-08T10:19:12.126Z,37.50
2018-07-08T10:21:40.550Z,37.90
2018-07-08T10:24:09.072Z,37.20
2018-07-08T10:26:37.511Z,38.50
2018-07-08T10:29:06.483Z,37.60
2018-07-08T10:31:49.703Z,38.10
2018-07-08T10:34:18.305Z,37.60
2018-07-08T10:36:46.741Z,36.60
2018-07-08T10:41:45.944Z,36.80
2018-07-08T10:44:15.941Z,36.90
2018-07-08T10:49:13.808Z,37.30
2018-07-08T10:51:42.188Z,37.50
2018-07-08T10:54:10.561Z,37.70
2018-07-08T10:56:39.169Z,37.40
2018-07-08T11:04:04.345Z,37.80
2018-07-08T11:06:33.168Z,37.90
2018-07-08T11:09:01.571Z,37.40
2018-07-08T11:11:29.935Z,37.50
2018-07-08T11:13:58.291Z,38.00
2018-07-08T11:16:26.710Z,38.00
2018-07-08T11:18:55.197Z,37.80
2018-07-08T11:21:23.607Z,37.70
2018-07-08T11:23:51.999Z,37.60
2018-07-08T11:26:20.439Z,38.80
2018-07-08T11:28:48.786Z,37.40
2018-07-08T11:31:17.295Z,37.70
2018-07-08T11:33:45.674Z,37.80
2018-07-08T11:36:14.038Z,37.60
2018-07-08T11:41:10.719Z,37.60
2018-07-08T11:43:39.150Z,38.00
2018-07-08T11:46:07.498Z,37.60
2018-07-08T11:48:35.854Z,36.50
2018-07-08T11:51:04.235Z,36.70
2018-07-08T11:53:33.534Z,36.50
2018-07-08T11:56:01.919Z,36.30
2018-07-08T11:58:30.270Z,36.30
2018-07-08T12:00:58.753Z,36.50
2018-07-08T12:03:33.763Z,36.50
2018-07-08T12:06:02.167Z,36.60
2018-07-08T12:08:30.591Z,37.10
2018-07-08T12:10:58.948Z,36.80
2018-07-08T12:13:27.384Z,36.70
2018-07-08T12:15:55.733Z,36.80
2018-07-08T12:18:24.196Z,36.90
2018-07-08T12:20:52.745Z,36.80
2018-07-08T12:23:21.199Z,36.50
2018-07-08T12:25:49.676Z,37.10
2018-07-08T12:28:18.100Z,37.00
2018-07-08T12:30:46.579Z,36.30
2018-07-08T12:33:15.041Z,35.80
2018-07-08T12:35:43.462Z,35.20
2018-07-08T12:38:11.843Z,35.40
2018-07-08T12:40:40.291Z,34.90
2018-07-08T12:43:08.702Z,35.10
2018-07-08T12:45:37.106Z,35.20
2018-07-08T12:48:05.566Z,35.00
2018-07-08T12:50:34.046Z,34.70
2018-07-08T12:53:02.534Z,34.40
2018-07-08T12:55:31.584Z,34.70
2018-07-08T12:58:00.005Z,34.30
2018-07-08T13:02:57.714Z,33.40
2018-07-08T13:05:26.138Z,33.90
2018-07-08T13:07:54.520Z,33.60
2018-07-08T13:10:22.933Z,33.50
2018-07-08T13:12:51.392Z,33.90
2018-07-08T13:17:48.357Z,34.10
2018-07-08T13:20:16.785Z,33.90
2018-07-08T13:22:45.173Z,33.60
2018-07-08T13:25:13.568Z,33.60
2018-07-08T13:27:42.020Z,32.40
2018-07-08T13:30:10.441Z,33.20
2018-07-08T13:35:07.452Z,32.20
2018-07-08T13:37:35.883Z,31.90
2018-07-08T13:40:04.594Z,32.40
2018-07-08T13:42:33.027Z,31.60
2018-07-08T13:45:01.820Z,31.60
2018-07-08T13:47:30.857Z,31.60
2018-07-08T13:49:59.420Z,30.90
2018-07-08T13:52:27.798Z,30.90
2018-07-08T13:54:56.225Z,31.00
2018-07-08T13:57:24.856Z,30.60
2018-07-08T13:59:53.257Z,31.20
2018-07-08T14:02:21.862Z,30.80
2018-07-08T14:04:50.366Z,30.30
2018-07-08T14:07:18.819Z,30.40
2018-07-08T14:09:47.809Z,30.30
2018-07-08T14:12:16.230Z,30.40
2018-07-08T14:19:41.179Z,30.00
2018-07-08T14:22:09.609Z,29.80
2018-07-08T14:24:37.996Z,30.00
2018-07-08T14:27:06.568Z,30.00
2018-07-08T14:29:35.593Z,29.40
2018-07-08T14:32:04.105Z,29.50
2018-07-08T14:34:32.622Z,29.20
2018-07-08T14:37:01.048Z,28.90
2018-07-08T14:39:29.520Z,29.30
2018-07-08T14:41:58.910Z,28.70
2018-07-08T14:44:27.289Z,28.80
2018-07-08T14:49:23.986Z,28.40
2018-07-08T14:51:52.421Z,28.00
2018-07-08T14:59:17.499Z,28.60
2018-07-08T15:01:45.940Z,28.70
2018-07-08T15:04:14.416Z,28.90
2018-07-08T15:06:42.872Z,28.90
2018-07-08T15:09:11.878Z,28.40
2018-07-08T15:11:40.593Z,28.30
2018-07-08T15:14:09.389Z,28.30
2018-07-08T15:16:37.831Z,28.30
2018-07-08T15:19:06.879Z,28.20
2018-07-08T15:21:35.407Z,28.00
2018-07-08T15:24:03.829Z,28.00
2018-07-08T15:26:32.196Z,28.00
2018-07-08T15:29:00.767Z,27.20
2018-07-08T15:31:29.232Z,27.80
2018-07-08T15:33:57.682Z,27.80
2018-07-08T15:36:26.219Z,27.00
2018-07-08T15:38:54.718Z,27.40
2018-07-08T15:41:23.214Z,27.30
2018-07-08T15:43:51.767Z,27.50
2018-07-08T15:46:20.243Z,26.90
2018-07-08T15:48:48.715Z,27.30
2018-07-08T15:51:17.180Z,27.60
2018-07-08T15:53:45.617Z,27.40
2018-07-08T15:56:14.005Z,27.30
2018-07-08T15:58:42.409Z,27.20
2018-07-08T16:01:10.843Z,27.00
2018-07-08T16:03:39.191Z,26.90
2018-07-08T16:06:07.797Z,25.90
2018-07-08T16:08:36.176Z,26.10
2018-07-08T16:16:01.351Z,25.20
2018-07-08T16:23:26.409Z,25.10
2018-07-08T16:25:54.979Z,25.00
2018-07-08T16:28:23.518Z,24.20
2018-07-08T16:30:52.124Z,23.50
2018-07-08T16:35:55.471Z,23.50
2018-07-08T16:38:24.038Z,24.20
2018-07-08T16:40:54.079Z,24.80
2018-07-08T16:43:22.615Z,24.50
2018-07-08T16:45:51.067Z,24.40
2018-07-08T16:48:19.584Z,24.20
2018-07-08T16:50:48.258Z,24.50
2018-07-08T16:53:16.794Z,24.60
2018-07-08T16:55:45.205Z,23.60
2018-07-08T16:58:13.761Z,23.70
2018-07-08T17:00:43.353Z,23.70
2018-07-08T17:03:11.880Z,24.20
2018-07-08T17:05:40.269Z,24.30
2018-07-08T17:08:08.818Z,24.70
2018-07-08T17:10:37.333Z,24.80
2018-07-08T17:13:05.973Z,24.40
2018-07-08T17:15:34.521Z,23.70
2018-07-08T17:18:03.518Z,24.10
2018-07-08T17:20:32.151Z,24.10
2018-07-08T17:23:00.534Z,23.70
2018-07-08T17:25:28.934Z,23.80
2018-07-08T17:27:57.552Z,23.30
2018-07-08T17:30:26.107Z,23.30
2018-07-08T17:32:54.581Z,22.80
2018-07-08T17:35:23.162Z,23.10
2018-07-08T17:37:51.705Z,22.60
2018-07-08T17:42:48.610Z,22.60
2018-07-08T17:45:17.525Z,23.10
2018-07-08T17:47:46.025Z,22.50
2018-07-08T17:50:14.438Z,22.10
2018-07-08T17:52:42.833Z,22.50
2018-07-08T17:55:11.212Z,22.50
2018-07-08T17:57:40.526Z,22.40
2018-07-08T18:00:09.003Z,22.40
2018-07-08T18:05:06.087Z,24.00
2018-07-08T18:07:34.540Z,23.20
2018-07-08T18:10:03.199Z,22.80
2018-07-08T18:12:32.141Z,22.40
2018-07-08T18:15:00.586Z,23.10
2018-07-08T18:17:29.179Z,22.40
2018-07-08T18:19:58.162Z,22.30
2018-07-08T18:22:26.765Z,22.30
2018-07-08T18:24:55.939Z,22.30
2018-07-08T18:27:24.408Z,22.70
2018-07-08T18:29:52.810Z,22.30
2018-07-08T18:32:21.269Z,22.20
2018-07-08T18:34:49.775Z,22.30
2018-07-08T18:37:18.331Z,22.60
2018-07-08T18:39:46.819Z,22.70
2018-07-08T18:42:15.249Z,22.50
2018-07-08T18:44:43.745Z,22.40
2018-07-08T18:49:40.416Z,22.90
2018-07-08T18:52:08.907Z,22.90
2018-07-08T18:54:37.363Z,24.10
2018-07-08T18:57:05.867Z,23.00
2018-07-08T18:59:34.876Z,23.30
2018-07-08T19:02:03.691Z,23.50
2018-07-08T19:04:32.328Z,23.80
2018-07-08T19:07:00.887Z,24.00
2018-07-08T19:09:29.307Z,24.20
2018-07-08T19:11:57.815Z,24.50
2018-07-08T19:14:26.298Z,24.50
2018-07-08T19:16:54.889Z,24.70
2018-07-08T19:19:23.418Z,25.00
2018-07-08T19:21:52.041Z,25.00
2018-07-08T19:24:20.579Z,25.10
2018-07-08T19:26:49.114Z,25.30
2018-07-08T19:29:24.408Z,25.50
2018-07-08T19:31:53.229Z,25.90
2018-07-08T19:34:21.826Z,26.20
2018-07-08T19:36:50.288Z,26.80
2018-07-08T19:39:18.695Z,27.50
2018-07-08T19:41:47.143Z,28.50
2018-07-08T19:44:15.612Z,29.20
2018-07-08T19:46:44.129Z,29.20
2018-07-08T19:49:12.706Z,29.30
2018-07-08T19:51:41.528Z,29.40
2018-07-08T19:54:09.968Z,29.50
2018-07-08T19:56:38.665Z,30.00
2018-07-08T19:59:07.206Z,30.50
2018-07-08T20:01:35.623Z,30.70
2018-07-08T20:04:04.315Z,30.90
2018-07-08T20:06:32.827Z,31.20
2018-07-08T20:09:01.394Z,31.40
2018-07-08T20:11:29.972Z,32.40
2018-07-08T20:13:58.810Z,32.20
2018-07-08T20:16:27.499Z,32.50
2018-07-08T20:18:56.026Z,32.60
2018-07-08T20:21:24.675Z,32.70
2018-07-08T20:23:53.017Z,32.80
2018-07-08T20:26:21.568Z,33.20
2018-07-08T20:28:50.264Z,33.30
2018-07-08T20:31:19.434Z,33.60
2018-07-08T20:33:47.922Z,33.70
2018-07-08T20:36:16.402Z,33.90
2018-07-08T20:38:44.878Z,34.00
2018-07-08T20:41:13.419Z,34.10
2018-07-08T20:43:42.330Z,34.50
2018-07-08T20:46:10.854Z,34.40
2018-07-08T20:48:39.431Z,34.70
2018-07-08T20:51:07.921Z,35.10
2018-07-08T20:53:36.343Z,35.00
2018-07-08T20:56:04.928Z,35.30
2018-07-08T20:58:33.419Z,36.20
2018-07-08T21:01:02.036Z,36.20
2018-07-08T21:03:30.601Z,36.20
2018-07-08T21:05:59.140Z,36.20
2018-07-08T21:08:28.029Z,36.20
2018-07-08T21:10:56.615Z,36.20
2018-07-08T21:13:25.395Z,36.20
2018-07-08T21:15:54.333Z,36.10
2018-07-08T21:18:22.846Z,36.70
2018-07-08T21:20:51.486Z,37.00
2018-07-08T21:23:19.986Z,37.30
2018-07-08T21:25:48.505Z,36.80
2018-07-08T21:28:16.960Z,37.20
2018-07-08T21:30:45.399Z,36.80
2018-07-08T21:35:43.304Z,37.70
2018-07-08T21:38:11.737Z,37.70
2018-07-08T21:40:40.221Z,38.40
2018-07-08T21:45:37.254Z,39.10
2018-07-08T21:48:05.834Z,38.80
2018-07-08T21:50:34.268Z,39.60
2018-07-08T21:53:02.797Z,38.80
2018-07-08T21:55:31.309Z,38.90
2018-07-08T21:57:59.722Z,38.90
2018-07-08T22:00:31.664Z,39.10
2018-07-08T22:03:00.826Z,39.50
2018-07-08T22:05:30.594Z,39.30
2018-07-08T22:08:05.090Z,39.70
2018-07-08T22:10:33.757Z,40.00
2018-07-08T22:13:02.977Z,39.60
2018-07-08T22:15:31.383Z,39.80
2018-07-08T22:17:59.841Z,39.80
2018-07-08T22:20:28.239Z,39.80
2018-07-08T22:22:56.627Z,39.60
2018-07-08T22:25:25.036Z,40.20
2018-07-08T22:27:53.920Z,40.40
2018-07-08T22:30:22.917Z,40.30
2018-07-08T22:32:51.280Z,40.40
2018-07-08T22:35:19.758Z,40.90
2018-07-08T22:37:49.102Z,41.00
2018-07-08T22:40:17.550Z,41.20
2018-07-08T22:42:45.941Z,41.30
2018-07-08T22:45:14.325Z,41.20
2018-07-08T22:47:42.690Z,41.50
2018-07-08T22:50:11.125Z,41.30
2018-07-08T22:52:39.712Z,41.40
2018-07-08T22:55:08.193Z,41.50
2018-07-08T22:57:36.709Z,41.60
2018-07-08T23:00:21.996Z,41.70
2018-07-08T23:04:04.751Z,42.00
2018-07-08T23:06:33.368Z,42.00
2018-07-08T23:09:01.773Z,41.70
2018-07-08T23:11:30.141Z,42.00
2018-07-08T23:13:58.945Z,41.80
2018-07-08T23:16:27.835Z,41.80
2018-07-08T23:21:24.583Z,42.60
2018-07-08T23:23:53.095Z,41.90
2018-07-08T23:26:21.480Z,41.80
2018-07-08T23:28:50.091Z,41.90
2018-07-08T23:31:18.473Z,41.80
2018-07-08T23:33:46.814Z,41.90
2018-07-08T23:36:15.229Z,41.80
2018-07-08T23:38:43.605Z,42.10
2018-07-08T23:41:12.085Z,41.60
2018-07-08T23:43:40.466Z,41.80
2018-07-08T23:46:08.884Z,42.40
2018-07-08T23:48:37.277Z,42.10
2018-07-08T23:51:06.573Z,41.90
2018-07-08T23:53:34.917Z,42.30
2018-07-08T23:56:03.338Z,42.70
2018-07-08T23:58:31.671Z,41.90
